Time;durP1;ratioP1;P1;durP2;ratioP2;P2;SDS_P1;SDS_P2;PMS_P1;PMS_P2;Temp;Humidity;BMP_temperature;BMP_pressure;BME280_temperature;BME280_humidity;BME280_pressure;Samples;Min_cycle;Max_cycle;Signal;HPM_P1;HPM_P2
2023/05/13 00:00:11;;;;;;;;;28.50;23.00;;;;;15.54;66.01;101351.13;4987085;28;45259;-62
2023/05/13 00:02:36;;;;;;;;;20.75;17.25;;;;;15.47;66.09;101331.28;4980951;28;45288;-63
2023/05/13 00:05:01;;;;;;;;;18.00;16.33;;;;;15.57;66.51;101356.56;4988211;28;45090;-64
2023/05/13 00:07:27;;;;;;;;;17.00;13.67;;;;;15.58;66.44;101359.28;4987949;28;45660;-65
2023/05/13 00:09:52;;;;;;;;;15.00;13.33;;;;;15.48;66.37;101333.09;4989353;28;45027;-62
2023/05/13 00:12:18;;;;;;;;;14.00;12.00;;;;;15.56;66.09;101352.97;4980650;28;45898;-62
2023/05/13 00:14:43;;;;;;;;;15.33;10.33;;;;;15.52;66.55;101344.81;5004368;27;45133;-62
2023/05/13 00:17:08;;;;;;;;;13.67;12.33;;;;;15.50;66.30;101339.41;4988638;28;45162;-64
2023/05/13 00:19:34;;;;;;;;;11.67;11.67;;;;;15.46;66.62;101348.34;4983477;28;45146;-62
2023/05/13 00:21:59;;;;;;;;;13.67;13.67;;;;;15.52;67.09;101361.88;4983598;28;45646;-64
2023/05/13 00:24:25;;;;;;;;;15.67;14.00;;;;;15.52;67.04;101351.09;4986244;28;45052;-66
2023/05/13 00:26:50;;;;;;;;;15.00;13.33;;;;;15.52;67.06;101364.56;4989567;28;45024;-62
2023/05/13 00:29:15;;;;;;;;;16.75;11.75;;;;;15.52;67.36;101364.56;4988354;27;45326;-64
2023/05/13 00:31:41;;;;;;;;;15.33;12.33;;;;;15.43;67.01;101356.34;4989205;28;46254;-62
2023/05/13 00:34:06;;;;;;;;;12.67;11.00;;;;;15.51;67.08;101361.84;4989035;28;44975;-63
2023/05/13 00:36:31;;;;;;;;;12.33;12.33;;;;;15.27;67.25;101323.78;4989369;28;45534;-62
2023/05/13 00:38:57;;;;;;;;;13.67;12.33;;;;;15.53;67.34;101357.41;4987424;28;45245;-62
2023/05/13 00:41:22;;;;;;;;;12.00;10.00;;;;;15.51;67.14;101370.84;4988870;28;45724;-66
2023/05/13 00:43:48;;;;;;;;;12.33;12.33;;;;;15.48;67.67;101360.91;4989734;28;45008;-64
2023/05/13 00:46:14;;;;;;;;;19.50;12.50;;;;;15.34;67.58;101356.19;4988571;28;45107;-61
2023/05/13 00:48:39;;;;;;;;;9.67;8.00;;;;;15.43;67.82;101369.81;4990282;28;45062;-62
2023/05/13 00:51:05;;;;;;;;;10.00;10.00;;;;;15.26;68.37;101350.66;4989587;28;45659;-64
2023/05/13 00:53:32;;;;;;;;;15.25;14.00;;;;;15.26;68.10;101358.75;4985934;28;45275;-61
2023/05/13 00:55:57;;;;;;;;;16.50;11.25;;;;;15.33;68.19;101367.81;4969830;28;45000;-63
2023/05/13 00:58:22;;;;;;;;;9.67;9.67;;;;;15.21;68.52;101353.31;4977049;28;45262;-63
2023/05/13 01:01:25;;;;;;;;;11.00;9.67;;;;;15.28;68.61;101373.16;4987402;28;45674;-63
2023/05/13 01:04:03;;;;;;;;;10.00;10.00;;;;;15.27;68.68;101374.94;4983243;28;45535;-63
2023/05/13 01:06:50;;;;;;;;;12.00;10.67;;;;;15.22;68.49;101367.66;4976817;28;45175;-64
2023/05/13 01:09:27;;;;;;;;;13.67;11.67;;;;;15.26;69.16;101378.50;4969188;28;45154;-62
2023/05/13 01:11:55;;;;;;;;;15.67;12.67;;;;;15.25;69.20;101379.38;4983587;28;45130;-64
2023/05/13 01:14:31;;;;;;;;;11.67;11.67;;;;;15.26;69.12;101374.91;4987217;28;45111;-62
2023/05/13 01:17:17;;;;;;;;;17.67;13.67;;;;;15.26;69.38;101373.13;4984926;28;45320;-71
2023/05/13 01:19:54;;;;;;;;;9.67;9.67;;;;;15.26;69.08;101375.81;4976746;28;45083;-63
2023/05/13 01:22:20;;;;;;;;;18.75;14.50;;;;;15.24;69.11;101372.19;4985390;28;45366;-64
2023/05/13 01:24:45;;;;;;;;;11.33;11.33;;;;;15.20;69.46;101372.13;4976701;28;60157;-63
2023/05/13 01:27:11;;;;;;;;;19.00;13.00;;;;;15.14;69.57;101353.16;4977478;28;45014;-67
2023/05/13 01:29:36;;;;;;;;;13.67;11.00;;;;;15.19;69.56;101368.50;4989273;28;45127;-63
2023/05/13 01:32:03;;;;;;;;;9.00;9.00;;;;;15.18;69.80;101369.41;4976722;28;45787;-64
2023/05/13 01:34:30;;;;;;;;;11.67;9.33;;;;;15.19;69.57;101373.88;4982707;28;45106;-62
2023/05/13 01:36:56;;;;;;;;;15.67;13.00;;;;;15.18;69.70;101372.09;4987728;28;45042;-63
2023/05/13 01:39:23;;;;;;;;;11.50;10.25;;;;;15.17;69.92;101375.66;4992087;28;45723;-61
2023/05/13 01:41:48;;;;;;;;;11.00;10.33;;;;;15.16;70.01;101372.94;4991531;28;45305;-65
2023/05/13 01:44:14;;;;;;;;;11.67;11.00;;;;;15.16;69.78;101381.00;4989049;28;45155;-68
2023/05/13 01:46:42;;;;;;;;;10.00;9.67;;;;;15.10;70.29;101376.44;4990152;28;45312;-62
2023/05/13 01:49:09;;;;;;;;;18.33;16.33;;;;;15.06;69.47;101379.94;4988515;28;45073;-66
2023/05/13 01:51:35;;;;;;;;;17.33;14.33;;;;;15.05;70.55;101383.53;4984601;28;46171;-66
2023/05/13 01:54:01;;;;;;;;;14.33;11.33;;;;;15.03;70.73;101377.19;4981384;28;45033;-63
2023/05/13 01:56:26;;;;;;;;;13.67;12.00;;;;;14.96;70.80;101375.28;4979595;28;44944;-64
2023/05/13 01:58:51;;;;;;;;;13.00;13.00;;;;;15.01;70.57;101389.72;4982833;28;45183;-61
2023/05/13 02:01:17;;;;;;;;;15.33;13.33;;;;;14.96;70.72;101375.28;4986131;28;53836;-64
2023/05/13 02:03:42;;;;;;;;;13.67;11.33;;;;;15.00;70.67;101388.81;4992578;28;45087;-61
2023/05/13 02:06:07;;;;;;;;;14.50;12.25;;;;;15.00;70.69;101383.44;4992085;28;45152;-68
2023/05/13 02:08:32;;;;;;;;;20.00;17.33;;;;;14.99;71.14;101381.59;4991638;28;44949;-67
2023/05/13 02:10:58;;;;;;;;;17.00;13.67;;;;;15.00;71.04;101383.44;4991063;28;45630;-64
2023/05/13 02:13:25;;;;;;;;;13.67;13.67;;;;;14.98;70.71;101386.97;4991180;28;45191;-63
2023/05/13 02:15:50;;;;;;;;;15.67;13.33;;;;;14.93;70.69;101384.19;4976261;28;45147;-67
2023/05/13 02:18:15;;;;;;;;;15.67;14.00;;;;;14.93;70.87;101384.19;4983843;28;45159;-69
2023/05/13 02:20:41;;;;;;;;;15.25;13.75;;;;;14.90;71.02;101378.75;4991560;28;45463;-63
2023/05/13 02:23:06;;;;;;;;;12.33;11.33;;;;;14.93;71.26;101382.41;4991498;28;45806;-63
2023/05/13 02:25:32;;;;;;;;;14.00;12.75;;;;;14.89;71.30;101367.06;4989859;28;44934;-61
2023/05/13 02:27:58;;;;;;;;;14.67;13.33;;;;;14.96;71.12;101386.94;4982682;28;45526;-64
2023/05/13 02:30:25;;;;;;;;;15.25;14.00;;;;;14.90;71.13;101373.38;4990885;28;46341;-67
2023/05/13 02:32:52;;;;;;;;;15.25;14.50;;;;;14.92;71.17;101372.53;4982479;28;45138;-62
2023/05/13 02:35:17;;;;;;;;;16.33;13.67;;;;;15.00;71.26;101382.53;4991405;28;45051;-62
2023/05/13 02:37:43;;;;;;;;;13.25;12.50;;;;;14.98;71.30;101376.19;4991123;28;45560;-61
2023/05/13 02:40:09;;;;;;;;;17.50;17.00;;;;;15.05;71.51;101386.22;4991031;28;45501;-62
2023/05/13 02:42:34;;;;;;;;;25.00;16.25;;;;;15.07;71.00;101385.34;4991238;28;45129;-62
2023/05/13 02:45:00;;;;;;;;;18.33;15.67;;;;;15.10;71.06;101377.34;4977750;28;45378;-67
2023/05/13 02:47:25;;;;;;;;;18.00;16.33;;;;;15.13;70.99;101379.19;4984764;28;45277;-62
2023/05/13 02:49:50;;;;;;;;;18.50;16.00;;;;;15.00;70.61;101343.06;4985576;28;47551;-62
2023/05/13 02:52:16;;;;;;;;;18.75;14.50;;;;;15.07;70.87;101361.13;4982472;28;45107;-62
2023/05/13 02:54:41;;;;;;;;;14.00;14.00;;;;;15.16;70.81;101376.53;4987626;28;45119;-65
2023/05/13 02:57:06;;;;;;;;;20.67;17.33;;;;;15.16;70.92;101378.31;4983921;28;45227;-63
2023/05/13 02:59:32;;;;;;;;;16.33;13.67;;;;;15.11;70.58;101362.06;4988073;28;45150;-61
2023/05/13 03:01:57;;;;;;;;;20.00;16.33;;;;;15.20;70.31;101388.28;4991028;28;45221;-63
2023/05/13 03:04:23;;;;;;;;;17.50;17.50;;;;;15.19;70.60;101390.03;4990945;28;45071;-63
2023/05/13 03:06:50;;;;;;;;;19.50;18.75;;;;;15.17;70.37;101382.84;4983672;28;45263;-63
2023/05/13 03:09:15;;;;;;;;;23.00;17.25;;;;;15.09;70.78;101380.88;4990744;28;45737;-62
2023/05/13 03:11:40;;;;;;;;;15.50;15.50;;;;;15.13;70.71;101389.94;4989414;28;51036;-62
2023/05/13 03:14:06;;;;;;;;;21.00;17.00;;;;;15.05;71.04;101381.72;4985201;28;45500;-62
2023/05/13 03:16:31;;;;;;;;;15.50;15.50;;;;;15.09;71.05;101388.97;4988537;28;45120;-63
2023/05/13 03:18:56;;;;;;;;;24.00;22.75;;;;;15.05;71.06;101384.41;4985674;28;47150;-64
2023/05/13 03:21:22;;;;;;;;;26.25;23.25;;;;;15.03;71.17;101379.88;4982346;28;45367;-64
2023/05/13 03:23:47;;;;;;;;;22.00;21.00;;;;;15.04;70.91;101381.69;4987528;28;45501;-65
2023/05/13 03:26:12;;;;;;;;;27.00;21.75;;;;;15.02;71.03;101378.97;4990533;28;45304;-64
2023/05/13 03:28:37;;;;;;;;;28.50;23.00;;;;;15.05;70.92;101380.84;4990286;28;45904;-64
2023/05/13 03:31:03;;;;;;;;;29.25;26.25;;;;;14.94;71.32;101375.25;4989791;28;61916;-63
2023/05/13 03:33:28;;;;;;;;;23.00;22.50;;;;;15.01;71.18;101396.00;4990387;28;45303;-68
2023/05/13 03:35:54;;;;;;;;;30.00;27.50;;;;;14.98;71.40;101387.88;4991127;28;45103;-67
2023/05/13 03:38:19;;;;;;;;;29.00;25.00;;;;;14.95;71.76;101385.13;4986908;28;46431;-63
2023/05/13 03:40:45;;;;;;;;;39.00;28.75;;;;;14.96;71.56;101394.09;4989701;28;44970;-68
2023/05/13 03:43:11;;;;;;;;;36.50;30.75;;;;;14.93;72.16;101385.09;4988828;28;45016;-65
2023/05/13 03:45:36;;;;;;;;;35.75;32.00;;;;;14.94;71.74;101396.75;4983839;28;44970;-64
2023/05/13 03:48:01;;;;;;;;;41.00;33.75;;;;;14.93;72.03;101389.56;4988266;28;45638;-67
2023/05/13 03:50:27;;;;;;;;;43.50;35.50;;;;;14.94;72.43;101399.47;4987093;28;45119;-66
2023/05/13 03:52:52;;;;;;;;;44.75;37.50;;;;;14.91;72.93;101383.25;4979958;28;45045;-63
2023/05/13 03:55:17;;;;;;;;;48.75;40.00;;;;;14.93;73.28;101403.00;4986886;28;45222;-62
2023/05/13 03:57:47;;;;;;;;;46.75;37.25;;;;;14.88;72.69;101396.63;4988071;28;45632;-63
2023/05/13 04:00:13;;;;;;;;;50.00;39.50;;;;;14.89;72.97;101396.66;4988817;28;45182;-61
2023/05/13 04:02:38;;;;;;;;;51.25;42.00;;;;;14.92;73.00;101402.13;4988763;28;45288;-64
2023/05/13 04:05:05;;;;;;;;;49.25;40.25;;;;;14.79;72.92;101373.16;4988000;28;45198;-62
2023/05/13 04:07:30;;;;;;;;;52.25;40.25;;;;;14.95;73.06;101408.41;4986317;28;45875;-63
2023/05/13 04:09:55;;;;;;;;;50.75;41.75;;;;;14.92;72.89;101401.22;4989405;28;45107;-63
2023/05/13 04:12:21;;;;;;;;;54.00;42.25;;;;;14.92;73.20;101409.28;4989899;28;45207;-61
2023/05/13 04:14:46;;;;;;;;;55.25;43.75;;;;;14.90;72.73;101411.94;4989992;28;45183;-63
2023/05/13 04:17:11;;;;;;;;;50.50;41.00;;;;;14.84;73.33;101400.16;4988943;28;57101;-62
2023/05/13 04:19:36;;;;;;;;;58.00;43.25;;;;;14.92;73.47;101414.66;4989422;28;45067;-64
2023/05/13 04:22:02;;;;;;;;;54.50;44.25;;;;;14.91;73.04;101418.22;4980801;28;45025;-61
2023/05/13 04:24:27;;;;;;;;;56.25;43.00;;;;;14.84;73.03;101411.81;4984246;28;45270;-63
2023/05/13 04:26:52;;;;;;;;;51.00;42.00;;;;;14.88;73.13;101419.09;4984768;28;45640;-61
2023/05/13 04:29:18;;;;;;;;;52.75;43.75;;;;;14.79;73.27;101399.16;4996856;28;55339;-65
2023/05/13 04:31:44;;;;;;;;;57.25;44.00;;;;;14.85;73.07;101420.78;4982607;28;45047;-62
2023/05/13 04:34:09;;;;;;;;;59.00;44.00;;;;;14.85;72.93;101408.25;4988612;28;44993;-62
2023/05/13 04:36:34;;;;;;;;;59.75;45.25;;;;;14.92;73.88;101425.44;4986358;28;46350;-61
2023/05/13 04:39:00;;;;;;;;;58.00;43.75;;;;;14.77;73.36;101392.88;4986672;28;45290;-63
2023/05/13 04:41:25;;;;;;;;;56.50;44.50;;;;;14.89;73.05;101418.19;4981039;28;45133;-61
2023/05/13 04:43:50;;;;;;;;;51.50;41.50;;;;;14.95;72.54;101428.19;4987821;28;45210;-63
2023/05/13 04:46:16;;;;;;;;;55.75;43.50;;;;;14.96;72.62;101424.59;4987720;28;45524;-63
2023/05/13 04:48:41;;;;;;;;;54.50;41.25;;;;;14.95;72.84;101422.81;4987939;28;45342;-62
2023/05/13 04:51:07;;;;;;;;;52.00;40.25;;;;;14.90;72.43;101422.72;4987274;28;45172;-62
2023/05/13 04:53:32;;;;;;;;;54.00;41.00;;;;;14.68;72.89;101389.13;4986872;28;45517;-64
2023/05/13 04:55:59;;;;;;;;;55.25;42.50;;;;;14.92;72.62;101438.88;4985759;28;46160;-61
2023/05/13 04:58:26;;;;;;;;;51.50;42.50;;;;;14.90;72.46;101438.84;4975162;28;44892;-61
2023/05/13 05:00:52;;;;;;;;;54.50;43.25;;;;;14.94;72.43;101447.88;4988505;28;44937;-61
2023/05/13 05:03:17;;;;;;;;;55.75;44.25;;;;;14.94;72.39;101447.88;4987374;28;45590;-64
2023/05/13 05:05:43;;;;;;;;;61.50;44.75;;;;;14.91;72.28;101439.75;4987256;28;45078;-61
2023/05/13 05:08:08;;;;;;;;;56.50;42.75;;;;;14.95;72.03;101449.72;4984272;28;45215;-63
2023/05/13 05:10:33;;;;;;;;;51.75;41.25;;;;;14.82;72.07;101431.53;4984069;28;45035;-62
2023/05/13 05:12:59;;;;;;;;;54.25;40.50;;;;;14.89;71.77;101446.91;4987911;28;44996;-61
2023/05/13 05:15:24;;;;;;;;;55.75;43.50;;;;;14.92;71.83;101453.25;4985107;28;45120;-65
2023/05/13 05:17:49;;;;;;;;;53.00;42.25;;;;;14.93;71.70;101459.50;4987314;28;45420;-62
2023/05/13 05:20:15;;;;;;;;;57.75;43.75;;;;;14.93;71.63;101460.44;4973705;28;45084;-61
2023/05/13 05:22:41;;;;;;;;;47.50;39.00;;;;;14.75;71.50;101430.50;4986676;28;45111;-65
2023/05/13 05:25:07;;;;;;;;;50.75;41.00;;;;;14.91;71.32;101463.97;4984891;28;45389;-61
2023/05/13 05:27:33;;;;;;;;;51.50;39.75;;;;;14.89;71.56;101468.41;4986301;28;45171;-63
2023/05/13 05:29:58;;;;;;;;;58.50;44.00;;;;;14.93;71.77;101473.91;4983663;28;45243;-62
2023/05/13 05:32:24;;;;;;;;;57.00;44.75;;;;;14.96;71.36;101474.81;4976158;28;45223;-63
2023/05/13 05:34:49;;;;;;;;;52.25;42.00;;;;;14.96;71.52;101478.41;4987492;28;47133;-61
2023/05/13 05:37:15;;;;;;;;;58.00;44.50;;;;;14.89;71.09;101466.63;4985533;28;45493;-63
2023/05/13 05:39:40;;;;;;;;;51.50;38.75;;;;;14.77;70.93;101449.34;4982372;28;47431;-61
2023/05/13 05:42:09;;;;;;;;;55.25;41.25;;;;;14.92;70.77;101471.16;4986332;27;45209;-63
2023/05/13 05:44:35;;;;;;;;;54.25;42.00;;;;;14.99;70.42;101485.66;4982991;28;45840;-61
2023/05/13 05:47:00;;;;;;;;;49.50;39.50;;;;;14.77;70.41;101452.03;4980463;28;45308;-60
2023/05/13 05:49:25;;;;;;;;;52.00;41.00;;;;;15.00;70.69;101495.56;4985289;27;44962;-63
2023/05/13 05:51:51;;;;;;;;;53.00;42.25;;;;;14.94;70.27;101485.56;4978697;28;45036;-65
2023/05/13 05:54:16;;;;;;;;;55.25;43.25;;;;;15.00;70.19;101498.25;4975951;28;45248;-63
2023/05/13 05:56:41;;;;;;;;;53.50;42.75;;;;;15.03;70.04;101507.28;4981594;28;44964;-60
2023/05/13 05:59:07;;;;;;;;;55.25;43.00;;;;;14.99;70.20;101510.78;4980652;28;45007;-61
2023/05/13 06:01:35;;;;;;;;;54.50;44.00;;;;;14.98;70.55;101505.34;4982604;28;45177;-62
2023/05/13 06:04:01;;;;;;;;;55.50;42.25;;;;;15.07;70.14;101519.00;4976767;28;47000;-64
2023/05/13 06:06:26;;;;;;;;;54.25;42.75;;;;;15.15;69.79;101520.06;4985963;28;45079;-64
2023/05/13 06:08:51;;;;;;;;;57.00;42.00;;;;;15.10;70.11;101502.94;4983189;28;45278;-61
2023/05/13 06:11:17;;;;;;;;;60.00;47.50;;;;;15.29;69.56;101523.03;4975544;28;45358;-61
2023/05/13 06:13:42;;;;;;;;;57.75;45.50;;;;;15.26;68.92;101514.88;4985311;28;46115;-61
2023/05/13 06:16:08;;;;;;;;;63.00;46.50;;;;;15.26;69.06;101515.81;4983525;28;45466;-61
2023/05/13 06:18:33;;;;;;;;;53.00;41.25;;;;;15.39;68.62;101526.81;4982187;28;45123;-60
2023/05/13 06:20:59;;;;;;;;;51.50;42.00;;;;;15.43;68.39;101526.91;4986634;28;45422;-60
2023/05/13 06:23:24;;;;;;;;;50.00;39.75;;;;;15.50;68.31;101535.09;4989295;28;46161;-61
2023/05/13 06:25:49;;;;;;;;;52.25;41.50;;;;;15.46;68.15;101526.97;4985788;28;45272;-59
2023/05/13 06:28:15;;;;;;;;;54.25;41.25;;;;;15.53;68.44;101535.16;4979566;28;45272;-60
2023/05/13 06:30:40;;;;;;;;;56.25;40.75;;;;;15.51;67.81;101534.19;4986082;28;45176;-61
2023/05/13 06:33:09;;;;;;;;;50.25;41.50;;;;;15.50;68.17;101527.91;4985551;28;46640;-60
2023/05/13 06:35:34;;;;;;;;;54.25;42.50;;;;;15.55;67.69;101526.22;4980431;28;45218;-60
2023/05/13 06:38:00;;;;;;;;;51.75;40.50;;;;;15.68;67.70;101554.28;4971554;28;45100;-61
2023/05/13 06:40:25;;;;;;;;;56.25;43.75;;;;;15.69;67.36;101547.09;4990156;28;45151;-61
2023/05/13 06:42:50;;;;;;;;;53.25;42.50;;;;;15.75;67.27;101553.50;4989386;28;45563;-60
2023/05/13 06:45:17;;;;;;;;;57.75;44.50;;;;;15.82;67.20;101558.19;4974584;28;45198;-61
2023/05/13 06:47:42;;;;;;;;;53.25;42.50;;;;;15.90;66.63;101552.00;4980242;28;45388;-61
2023/05/13 06:50:08;;;;;;;;;59.25;44.75;;;;;15.88;66.86;101549.28;4988289;27;45171;-61
2023/05/13 06:52:33;;;;;;;;;65.50;51.00;;;;;16.05;66.53;101559.44;4985869;28;45161;-61
2023/05/13 06:54:59;;;;;;;;;52.25;41.00;;;;;16.13;65.78;101552.41;4991236;28;45455;-61
2023/05/13 06:57:25;;;;;;;;;61.75;46.25;;;;;16.26;65.53;101550.81;4990881;28;45323;-62
2023/05/13 06:59:50;;;;;;;;;55.75;42.75;;;;;16.35;64.88;101548.25;4991355;28;44921;-62
2023/05/13 07:02:15;;;;;;;;;51.75;41.00;;;;;16.40;64.59;101546.56;4989695;28;45391;-62
2023/05/13 07:04:41;;;;;;;;;45.75;40.75;;;;;16.54;64.39;101560.22;4986080;28;45082;-63
2023/05/13 07:07:06;;;;;;;;;56.50;42.00;;;;;16.56;64.35;101548.59;4983967;28;45143;-60
2023/05/13 07:09:33;;;;;;;;;50.50;41.75;;;;;16.60;63.91;101541.44;4986987;28;45020;-61
2023/05/13 07:11:58;;;;;;;;;61.50;47.00;;;;;16.70;63.89;101556.88;4983726;28;45572;-60
2023/05/13 07:14:25;;;;;;;;;52.25;42.50;;;;;16.79;63.30;101561.47;4990936;27;45269;-64
2023/05/13 07:16:50;;;;;;;;;60.75;46.75;;;;;16.81;63.18;101558.81;4990447;28;45126;-65
2023/05/13 07:19:15;;;;;;;;;56.50;46.00;;;;;16.77;63.35;101565.97;4983407;28;45151;-64
2023/05/13 07:21:41;;;;;;;;;54.25;42.50;;;;;16.70;63.13;101564.97;4983705;28;45269;-63
2023/05/13 07:24:06;;;;;;;;;63.00;48.25;;;;;16.62;63.51;101545.06;4990388;28;45134;-62
2023/05/13 07:26:32;;;;;;;;;57.25;47.00;;;;;16.40;63.64;101522.28;4986073;28;45262;-62
2023/05/13 07:28:58;;;;;;;;;60.00;47.50;;;;;16.43;63.64;101548.38;4978880;28;45299;-65
2023/05/13 07:31:24;;;;;;;;;54.00;45.75;;;;;16.49;64.49;101565.56;5011983;27;46416;-61
2023/05/13 07:33:49;;;;;;;;;53.50;45.25;;;;;16.53;64.21;101563.81;4987362;27;45329;-64
2023/05/13 07:36:15;;;;;;;;;64.00;45.50;;;;;16.55;64.57;101562.06;4987145;28;45511;-65
2023/05/13 07:38:40;;;;;;;;;50.00;40.00;;;;;16.61;64.26;101559.41;4977432;28;45042;-65
2023/05/13 07:41:06;;;;;;;;;54.25;44.25;;;;;16.58;64.12;101543.19;4977865;28;61718;-62
2023/05/13 07:43:33;;;;;;;;;59.00;47.50;;;;;16.69;63.99;101562.25;4981372;28;45536;-61
2023/05/13 07:45:59;;;;;;;;;60.00;47.25;;;;;16.70;63.91;101573.06;4983633;28;45167;-62
2023/05/13 07:48:27;;;;;;;;;60.25;47.00;;;;;16.78;63.82;101567.78;4983895;28;45171;-61
2023/05/13 07:50:52;;;;;;;;;64.50;50.25;;;;;16.87;63.88;101567.94;4988241;28;46154;-63
2023/05/13 07:53:18;;;;;;;;;60.00;48.75;;;;;16.95;63.42;101578.84;4978450;28;45064;-64
2023/05/13 07:55:43;;;;;;;;;62.00;45.00;;;;;16.91;63.10;101559.00;4983906;28;46310;-62
2023/05/13 07:58:08;;;;;;;;;67.00;45.25;;;;;17.08;63.22;101569.09;4979803;28;48096;-62
2023/05/13 08:00:34;;;;;;;;;60.50;48.75;;;;;17.11;63.21;101571.84;4986418;28;45227;-62
2023/05/13 08:03:00;;;;;;;;;53.75;44.50;;;;;17.04;62.70;101549.28;4992809;28;45116;-63
2023/05/13 08:05:26;;;;;;;;;59.25;46.75;;;;;17.01;62.39;101542.91;5001278;28;45160;-64
2023/05/13 08:07:51;;;;;;;;;56.50;46.75;;;;;17.13;62.65;101565.56;4995229;28;46290;-64
2023/05/13 08:10:16;;;;;;;;;54.50;45.00;;;;;17.10;62.59;101557.44;4988543;28;45730;-61
2023/05/13 08:12:42;;;;;;;;;52.75;42.50;;;;;17.20;62.36;101579.16;4977253;28;45065;-62
2023/05/13 08:15:08;;;;;;;;;55.25;44.50;;;;;17.20;62.47;101569.25;4980497;28;45322;-62
2023/05/13 08:17:34;;;;;;;;;53.25;42.75;;;;;17.25;62.10;101575.59;4982252;28;45254;-62
2023/05/13 08:20:02;;;;;;;;;56.00;44.00;;;;;17.30;62.24;101589.19;4977494;28;45523;-62
2023/05/13 08:22:27;;;;;;;;;63.25;46.25;;;;;17.35;62.13;101575.72;4985252;28;45546;-65
2023/05/13 08:24:53;;;;;;;;;61.25;47.25;;;;;17.38;61.86;101573.97;4985197;28;44986;-62
2023/05/13 08:27:18;;;;;;;;;61.50;46.25;;;;;17.43;61.32;101574.91;4987518;28;45196;-60
2023/05/13 08:29:45;;;;;;;;;62.25;46.50;;;;;17.44;61.34;101582.16;4990737;28;46891;-61
2023/05/13 08:32:11;;;;;;;;;60.00;46.25;;;;;17.52;61.50;101582.22;4983343;27;45154;-63
2023/05/13 08:34:36;;;;;;;;;62.50;47.00;;;;;17.57;60.69;101584.97;4981350;28;45003;-63
2023/05/13 08:37:01;;;;;;;;;54.00;39.50;;;;;17.49;61.26;101574.09;4993288;27;45080;-61
2023/05/13 08:39:27;;;;;;;;;59.50;46.50;;;;;17.52;61.12;101586.72;4980663;27;45542;-63
2023/05/13 08:41:56;;;;;;;;;65.50;52.00;;;;;17.57;60.69;101582.28;4988477;28;45282;-61
2023/05/13 08:44:27;;;;;;;;;56.00;44.50;;;;;17.64;60.54;101584.16;4982976;28;45088;-60
2023/05/13 08:47:03;;;;;;;;;53.00;44.00;;;;;17.72;60.47;101592.34;4981594;28;45316;-63
2023/05/13 08:49:28;;;;;;;;;54.50;44.25;;;;;17.74;60.40;101590.59;5020359;27;45619;-60
2023/05/13 08:51:54;;;;;;;;;67.75;47.00;;;;;17.68;60.03;101581.50;4982438;28;45196;-61
2023/05/13 08:54:20;;;;;;;;;60.00;45.75;;;;;17.60;60.51;101566.09;4983317;28;45203;-65
2023/05/13 08:56:45;;;;;;;;;53.00;40.50;;;;;17.69;60.67;101568.91;4990270;28;45249;-61
2023/05/13 08:59:11;;;;;;;;;59.50;44.50;;;;;17.82;59.96;101578.94;4989014;28;45335;-68
2023/05/13 09:01:36;;;;;;;;;63.50;48.25;;;;;17.92;59.50;101581.75;4988454;28;45107;-62
2023/05/13 09:04:07;;;;;;;;;61.00;44.00;;;;;18.00;59.21;101594.47;4989610;28;45115;-63
2023/05/13 09:06:32;;;;;;;;;60.50;47.00;;;;;18.10;59.20;101581.00;4977110;28;45116;-62
2023/05/13 09:08:58;;;;;;;;;55.50;43.25;;;;;18.13;59.07;101573.88;4979832;28;48339;-65
2023/05/13 09:11:25;;;;;;;;;55.50;43.00;;;;;18.27;58.66;101582.06;4985961;28;45043;-63
2023/05/13 09:13:59;;;;;;;;;55.75;43.00;;;;;18.30;58.19;101582.09;4980996;28;45202;-69
2023/05/13 09:16:27;;;;;;;;;54.25;41.50;;;;;18.40;57.74;101583.09;4980556;28;45266;-67
2023/05/13 09:19:03;;;;;;;;;51.50;42.50;;;;;18.41;57.90;101585.81;4983735;28;45937;-63
2023/05/13 09:21:31;;;;;;;;;52.25;40.25;;;;;18.42;57.30;101587.59;4977336;28;44991;-62
2023/05/13 09:24:17;;;;;;;;;52.50;42.50;;;;;18.45;57.27;101597.53;4986686;28;44960;-65
2023/05/13 09:26:42;;;;;;;;;55.25;45.50;;;;;18.41;57.20;101593.00;4989084;28;45133;-61
2023/05/13 09:29:22;;;;;;;;;53.75;45.00;;;;;18.47;57.27;101589.44;4975582;28;45504;-64
2023/05/13 09:31:50;;;;;;;;;58.25;45.25;;;;;18.39;57.20;101579.44;4981099;28;45503;-61
2023/05/13 09:34:28;;;;;;;;;46.25;39.00;;;;;18.45;57.27;101597.53;4986171;28;45076;-64
2023/05/13 09:37:02;;;;;;;;;57.25;45.25;;;;;18.46;57.54;101587.63;4984837;28;45217;-63
2023/05/13 09:39:28;;;;;;;;;49.50;39.75;;;;;18.53;57.35;101595.81;4986213;28;45605;-63
2023/05/13 09:41:53;;;;;;;;;56.75;43.75;;;;;18.57;57.44;101589.50;4984695;28;45212;-61
2023/05/13 09:44:20;;;;;;;;;57.75;44.25;;;;;18.63;56.91;101585.94;4980113;28;45357;-61
2023/05/13 09:46:45;;;;;;;;;54.25;43.25;;;;;18.74;56.63;101595.06;4982343;28;45377;-61
2023/05/13 09:49:11;;;;;;;;;48.50;40.00;;;;;18.75;56.03;101583.31;4974922;28;45643;-61
2023/05/13 09:51:37;;;;;;;;;57.00;44.00;;;;;18.66;55.57;101576.94;4979752;28;45119;-60
2023/05/13 09:54:06;;;;;;;;;79.00;66.00;;;;;18.71;56.12;101594.09;4982262;28;45195;-61
2023/05/13 09:56:34;;;;;;;;;49.25;39.50;;;;;18.66;56.16;101585.03;4990344;28;45106;-64
2023/05/13 09:59:01;;;;;;;;;52.75;41.75;;;;;18.73;56.19;101578.78;4987974;28;46236;-63
2023/05/13 10:01:27;;;;;;;;;58.25;46.25;;;;;18.84;55.89;101589.72;4982961;28;45504;-61
2023/05/13 10:03:55;;;;;;;;;50.50;42.25;;;;;18.85;55.82;101587.00;4989238;27;45068;-68
2023/05/13 10:06:28;;;;;;;;;52.75;42.25;;;;;18.86;55.47;101585.19;4988692;28;45412;-63
2023/05/13 10:08:59;;;;;;;;;53.50;43.50;;;;;18.91;55.53;101581.63;4990613;28;45875;-68
2023/05/13 10:11:26;;;;;;;;;53.75;43.75;;;;;18.98;55.52;101576.25;4990338;28;45015;-61
2023/05/13 10:13:59;;;;;;;;;57.50;44.75;;;;;19.05;55.02;101568.16;4988610;28;45048;-63
2023/05/13 10:16:26;;;;;;;;;54.00;43.75;;;;;19.12;55.01;101575.44;4978190;28;45038;-62
2023/05/13 10:18:52;;;;;;;;;51.00;40.75;;;;;19.11;54.58;101562.78;4988165;28;46523;-61
2023/05/13 10:21:18;;;;;;;;;51.50;43.00;;;;;19.17;54.88;101566.41;4989246;28;45315;-62
2023/05/13 10:23:44;;;;;;;;;53.50;44.25;;;;;19.29;54.23;101567.34;5007221;28;45653;-62
2023/05/13 10:26:11;;;;;;;;;50.00;42.50;;;;;19.41;54.06;101565.59;4990145;28;45112;-63
2023/05/13 10:28:37;;;;;;;;;53.00;42.00;;;;;19.46;54.19;101563.78;4989703;28;45928;-63
2023/05/13 10:31:03;;;;;;;;;49.25;40.00;;;;;19.31;53.05;101521.31;4989449;28;45476;-59
2023/05/13 10:33:29;;;;;;;;;56.25;42.50;;;;;19.61;53.23;101574.66;4988274;28;45562;-62
2023/05/13 10:36:04;;;;;;;;;50.50;38.25;;;;;19.60;53.16;101569.22;4988335;28;45004;-62
2023/05/13 10:38:45;;;;;;;;;54.50;43.00;;;;;19.67;53.54;101571.06;4985987;28;45853;-62
2023/05/13 10:41:39;;;;;;;;;50.00;38.25;;;;;19.70;53.19;101561.13;4989918;28;45766;-63
2023/05/13 10:44:05;;;;;;;;;51.25;39.25;;;;;19.74;53.17;101566.56;4983313;28;45855;-64
2023/05/13 10:46:33;;;;;;;;;50.75;40.75;;;;;19.79;53.23;101557.56;4987877;28;45247;-62
2023/05/13 10:48:59;;;;;;;;;50.25;37.25;;;;;19.88;52.98;101548.53;4981164;28;45371;-65
2023/05/13 10:51:25;;;;;;;;;49.50;38.75;;;;;20.00;53.02;101556.69;4986966;28;44962;-64
2023/05/13 10:53:53;;;;;;;;;54.00;42.25;;;;;20.13;52.45;101548.53;4981401;28;45324;-64
2023/05/13 10:56:24;;;;;;;;;49.25;39.75;;;;;20.14;52.64;101544.91;4988576;28;45167;-63
2023/05/13 10:59:05;;;;;;;;;48.25;37.75;;;;;20.20;52.38;101544.94;4990764;28;45988;-63
2023/05/13 11:01:42;;;;;;;;;45.75;38.75;;;;;20.15;52.55;101531.34;4979338;28;44996;-61
2023/05/13 11:04:12;;;;;;;;;41.75;37.50;;;;;20.22;52.28;101541.28;4990083;28;45154;-63
2023/05/13 11:06:40;;;;;;;;;50.00;39.50;;;;;20.22;51.70;101541.28;4987691;28;45215;-63